Time;durP1;ratioP1;P1;durP2;ratioP2;P2;SDS_P1;SDS_P2;PMS_P1;PMS_P2;Temp;Humidity;BMP_temperature;BMP_pressure;BME280_temperature;BME280_humidity;BME280_pressure;Samples;Min_cycle;Max_cycle;Signal;HPM_P1;HPM_P2
2023/08/02 00:01:02;;;;;;;0.00;0.00;;;;;;;14.91;nan;98064.69;6217699;23;20011;-78
2023/08/02 00:03:28;;;;;;;0.00;0.00;;;;;;;14.94;nan;98070.31;6217443;23;20019;-77
2023/08/02 00:05:58;;;;;;;0.00;0.00;;;;;;;14.91;nan;98086.72;6242850;23;19999;-77
2023/08/02 00:08:25;;;;;;;0.00;0.00;;;;;;;14.92;nan;98082.81;6243472;23;20133;-77
2023/08/02 00:10:51;;;;;;;0.00;0.00;;;;;;;14.92;nan;98075.38;6243909;23;20004;-77
2023/08/02 00:13:17;;;;;;;0.00;0.00;;;;;;;14.93;nan;98051.41;6241942;23;20100;-77
2023/08/02 00:15:43;;;;;;;0.00;0.00;;;;;;;14.97;nan;98057.81;6243382;23;20070;-77
2023/08/02 00:18:09;;;;;;;0.00;0.00;;;;;;;15.00;nan;98068.09;6217889;23;20023;-77
2023/08/02 00:20:38;;;;;;;0.00;0.00;;;;;;;15.08;nan;98075.38;6244588;22;20008;-76
2023/08/02 00:23:06;;;;;;;0.00;0.00;;;;;;;15.10;nan;98073.09;6244061;22;20069;-76
2023/08/02 00:25:41;;;;;;;0.00;0.00;;;;;;;15.09;nan;98043.97;6244320;22;20015;-77
2023/08/02 00:28:06;;;;;;;0.00;0.00;;;;;;;15.12;nan;98043.25;6243564;23;20065;-77
2023/08/02 00:30:51;;;;;;;0.00;0.00;;;;;;;15.14;nan;98027.19;6243114;23;20431;-77
2023/08/02 00:33:17;;;;;;;0.00;0.00;;;;;;;15.17;nan;98018.22;6242975;23;20134;-77
2023/08/02 00:35:44;;;;;;;0.00;0.00;;;;;;;15.19;nan;98013.16;6191994;23;20435;-76
2023/08/02 00:38:10;;;;;;;0.00;0.00;;;;;;;15.20;nan;98005.72;6216120;23;20016;-77
2023/08/02 00:40:35;;;;;;;0.00;0.00;;;;;;;15.23;nan;98006.94;6217602;23;20453;-76
2023/08/02 00:43:04;;;;;;;0.00;0.00;;;;;;;15.22;nan;97983.34;6191503;23;20004;-78
2023/08/02 00:45:30;;;;;;;0.00;0.00;;;;;;;15.22;nan;97964.06;6243558;23;20024;-77
2023/08/02 00:47:57;;;;;;;0.00;0.00;;;;;;;15.37;nan;97971.47;6241345;23;20411;-78
2023/08/02 00:50:24;;;;;;;0.00;0.00;;;;;;;15.35;nan;97957.28;6245376;22;20452;-77
2023/08/02 00:52:50;;;;;;;0.00;0.00;;;;;;;15.41;nan;97955.84;6216114;22;20722;-76
2023/08/02 00:55:16;;;;;;;0.00;0.00;;;;;;;15.46;nan;97952.00;6244399;23;20335;-77
2023/08/02 00:57:41;;;;;;;0.00;0.00;;;;;;;15.45;nan;97945.72;6191175;23;20036;-77
2023/08/02 01:00:07;;;;;;;0.00;0.00;;;;;;;15.47;nan;97932.38;6216180;23;20016;-78
2023/08/02 01:02:33;;;;;;;0.00;0.00;;;;;;;15.51;nan;97919.50;6192132;23;20107;-79
2023/08/02 01:05:01;;;;;;;0.00;0.00;;;;;;;15.57;nan;97924.72;6167119;23;20435;-78
2023/08/02 01:07:41;;;;;;;0.00;0.00;;;;;;;15.45;nan;97890.63;6193124;23;20015;-78
2023/08/02 01:10:35;;;;;;;0.00;0.00;;;;;;;15.63;nan;97899.28;6216118;23;20046;-77
2023/08/02 01:13:05;;;;;;;0.00;0.00;;;;;;;15.65;nan;97890.66;6189193;23;20011;-78
2023/08/02 01:15:33;;;;;;;0.00;0.00;;;;;;;15.66;nan;97872.97;6213282;23;20053;-78
2023/08/02 01:17:59;;;;;;;0.00;0.00;;;;;;;15.69;nan;97866.72;6216749;23;20379;-78
2023/08/02 01:20:24;;;;;;;0.00;0.00;;;;;;;15.61;nan;97853.97;6188584;23;20018;-77
2023/08/02 01:22:50;;;;;;;0.00;0.00;;;;;;;15.77;nan;97868.47;6192033;23;20316;-77
2023/08/02 01:25:15;;;;;;;0.00;0.00;;;;;;;15.79;nan;97866.19;6192728;23;20367;-77
2023/08/02 01:27:46;;;;;;;0.00;0.00;;;;;;;15.81;nan;97852.84;6192041;23;20752;-77
2023/08/02 01:30:18;;;;;;;0.00;0.00;;;;;;;15.68;nan;97826.56;6216872;23;20007;-77
2023/08/02 01:32:43;;;;;;;0.00;0.00;;;;;;;15.77;nan;97829.09;6243644;23;19996;-78
2023/08/02 01:35:09;;;;;;;0.00;0.00;;;;;;;15.87;nan;97823.84;6191256;23;20019;-77
2023/08/02 01:37:39;;;;;;;0.00;0.00;;;;;;;15.91;nan;97823.88;6216634;23;20004;-77
2023/08/02 01:40:08;;;;;;;0.00;0.00;;;;;;;15.96;nan;97817.28;6242918;23;20057;-76
2023/08/02 01:42:36;;;;;;;0.00;0.00;;;;;;;15.99;nan;97819.28;6192323;23;20317;-76
2023/08/02 01:45:01;;;;;;;0.00;0.00;;;;;;;16.01;nan;97805.97;6191879;23;20013;-77
2023/08/02 01:47:27;;;;;;;0.00;0.00;;;;;;;15.95;nan;97791.69;6191839;23;20007;-78
2023/08/02 01:50:00;;;;;;;0.00;0.00;;;;;;;16.02;nan;97796.53;6216938;23;20004;-78
2023/08/02 01:52:25;;;;;;;0.00;0.00;;;;;;;16.00;nan;97802.44;6195090;23;20004;-77
2023/08/02 01:54:50;;;;;;;0.00;0.00;;;;;;;16.11;nan;97804.56;6215886;22;20016;-77
2023/08/02 01:57:16;;;;;;;0.00;0.00;;;;;;;16.06;nan;97786.34;6247554;22;20010;-78
2023/08/02 01:59:42;;;;;;;0.00;0.00;;;;;;;16.02;nan;97774.50;6245906;22;20007;-77
2023/08/02 02:02:25;;;;;;;0.00;0.00;;;;;;;16.08;nan;97778.53;6222712;22;20004;-78
2023/08/02 02:04:56;;;;;;;0.00;0.00;;;;;;;16.18;nan;97786.19;6221912;22;20012;-78
2023/08/02 02:07:21;;;;;;;0.00;0.00;;;;;;;16.18;nan;97771.63;6247940;22;20329;-78
2023/08/02 02:09:47;;;;;;;0.00;0.00;;;;;;;16.15;nan;97759.34;6221098;22;20027;-77
2023/08/02 02:12:15;;;;;;;0.00;0.00;;;;;;;16.19;nan;97764.91;6246651;22;20000;-77
2023/08/02 02:14:40;;;;;;;0.00;0.00;;;;;;;16.25;nan;97770.91;6197376;22;20035;-77
2023/08/02 02:17:05;;;;;;;0.00;0.00;;;;;;;16.39;nan;97782.19;6273801;22;20004;-77
2023/08/02 02:19:34;;;;;;;0.00;0.00;;;;;;;16.38;nan;97769.56;6273225;22;20003;-77
2023/08/02 02:21:59;;;;;;;0.00;0.00;;;;;;;16.39;nan;97760.91;6247181;22;20006;-76
2023/08/02 02:24:25;;;;;;;0.00;0.00;;;;;;;16.30;nan;97754.09;6223500;22;20012;-77
2023/08/02 02:26:53;;;;;;;0.00;0.00;;;;;;;16.31;nan;97752.91;6274615;22;20414;-78
2023/08/02 02:29:24;;;;;;;0.00;0.00;;;;;;;16.37;nan;97760.50;6275176;22;20303;-78
2023/08/02 02:31:50;;;;;;;0.00;0.00;;;;;;;16.40;nan;97761.72;6247282;22;19996;-77
2023/08/02 02:34:22;;;;;;;0.00;0.00;;;;;;;16.40;nan;97745.19;6222685;22;20004;-77
2023/08/02 02:36:50;;;;;;;0.00;0.00;;;;;;;16.41;nan;97752.28;6247650;22;20008;-77
2023/08/02 02:39:15;;;;;;;0.00;0.00;;;;;;;16.48;nan;97754.34;6223315;22;20008;-77
2023/08/02 02:41:40;;;;;;;0.00;0.00;;;;;;;16.48;nan;97746.88;6271766;22;20035;-77
2023/08/02 02:44:08;;;;;;;0.00;0.00;;;;;;;16.44;nan;97726.72;6192222;22;20011;-76
2023/08/02 02:46:34;;;;;;;0.00;0.00;;;;;;;16.52;nan;97736.69;6245808;22;20035;-77
2023/08/02 02:48:59;;;;;;;0.00;0.00;;;;;;;16.49;nan;97734.69;6221937;22;20007;-77
2023/08/02 02:51:32;;;;;;;0.00;0.00;;;;;;;16.45;nan;97725.53;6221557;22;20027;-77
2023/08/02 02:54:20;;;;;;;0.00;0.00;;;;;;;16.55;nan;97730.44;6247271;22;20024;-78
2023/08/02 02:56:48;;;;;;;0.00;0.00;;;;;;;16.43;nan;97708.59;6225762;22;20011;-77
2023/08/02 02:59:14;;;;;;;0.00;0.00;;;;;;;16.44;nan;97704.66;6245749;22;20137;-77
2023/08/02 03:01:39;;;;;;;0.00;0.00;;;;;;;16.46;nan;97715.31;6247519;22;20094;-75
2023/08/02 03:04:07;;;;;;;0.00;0.00;;;;;;;16.45;nan;97713.72;6221916;22;20057;-75
2023/08/02 03:06:32;;;;;;;0.00;0.00;;;;;;;16.45;nan;97708.22;6221556;22;20011;-75
2023/08/02 03:08:58;;;;;;;0.00;0.00;;;;;;;16.52;nan;97709.09;6247204;22;19999;-76
2023/08/02 03:11:23;;;;;;;0.00;0.00;;;;;;;16.51;nan;97712.25;6245531;22;20470;-76
2023/08/02 03:13:52;;;;;;;0.00;0.00;;;;;;;16.50;nan;97705.94;6220961;22;20035;-77
2023/08/02 03:16:17;;;;;;;0.00;0.00;;;;;;;16.42;nan;97686.91;6244292;22;20090;-76
2023/08/02 03:18:45;;;;;;;0.00;0.00;;;;;;;16.35;nan;97682.06;6244604;22;20481;-77
2023/08/02 03:21:10;;;;;;;0.00;0.00;;;;;;;16.47;nan;97694.84;6246153;22;20014;-77
2023/08/02 03:23:36;;;;;;;0.00;0.00;;;;;;;16.40;nan;97679.78;6245912;22;20004;-77
2023/08/02 03:26:01;;;;;;;0.00;0.00;;;;;;;16.44;nan;97679.03;6220746;22;20007;-76
2023/08/02 03:28:27;;;;;;;0.00;0.00;;;;;;;16.47;nan;97678.28;6246657;22;20024;-76
2023/08/02 03:30:55;;;;;;;0.00;0.00;;;;;;;16.45;nan;97669.59;6196965;22;20480;-77
2023/08/02 03:33:21;;;;;;;0.00;0.00;;;;;;;16.38;nan;97664.75;6274186;22;20333;-74
2023/08/02 03:35:46;;;;;;;0.00;0.00;;;;;;;16.43;nan;97667.22;6245436;22;20089;-76
2023/08/02 03:38:12;;;;;;;0.00;0.00;;;;;;;16.39;nan;97669.91;6196575;22;20065;-77
2023/08/02 03:40:37;;;;;;;0.00;0.00;;;;;;;16.37;nan;97671.47;6222306;22;20030;-77
2023/08/02 03:43:02;;;;;;;0.00;0.00;;;;;;;16.35;nan;97671.03;6196818;22;20039;-77
2023/08/02 03:45:28;;;;;;;0.00;0.00;;;;;;;16.23;nan;97659.03;6223265;22;20385;-78
2023/08/02 03:47:53;;;;;;;0.00;0.00;;;;;;;16.21;nan;97655.09;6247197;22;20665;-77
2023/08/02 03:50:19;;;;;;;0.00;0.00;;;;;;;16.23;nan;97653.53;6222350;22;20083;-78
2023/08/02 03:52:44;;;;;;;0.00;0.00;;;;;;;16.22;nan;97648.38;6247009;22;20034;-78
2023/08/02 03:55:09;;;;;;;0.00;0.00;;;;;;;16.27;nan;97658.31;6222614;22;20099;-76
2023/08/02 03:57:35;;;;;;;0.00;0.00;;;;;;;16.23;nan;97667.31;6272701;22;20422;-76
2023/08/02 04:00:00;;;;;;;0.00;0.00;;;;;;;16.20;nan;97665.28;6195780;22;20010;-77
2023/08/02 04:02:26;;;;;;;0.00;0.00;;;;;;;16.22;nan;97662.16;6219758;22;20027;-78
2023/08/02 04:04:51;;;;;;;0.00;0.00;;;;;;;16.11;nan;97653.75;6195951;22;20012;-76
2023/08/02 04:07:17;;;;;;;0.00;0.00;;;;;;;16.08;nan;97657.25;6246477;22;20012;-76
2023/08/02 04:09:42;;;;;;;0.00;0.00;;;;;;;16.04;nan;97662.69;6272448;22;20423;-76
2023/08/02 04:12:10;;;;;;;0.00;0.00;;;;;;;15.96;nan;97640.91;6247567;22;20415;-76
2023/08/02 04:14:35;;;;;;;0.00;0.00;;;;;;;16.00;nan;97655.53;6247434;22;20046;-76
2023/08/02 04:17:01;;;;;;;0.00;0.00;;;;;;;15.95;nan;97662.16;6275517;22;20015;-76
2023/08/02 04:19:29;;;;;;;0.00;0.00;;;;;;;15.92;nan;97640.06;6221060;22;20090;-75
2023/08/02 04:21:55;;;;;;;0.00;0.00;;;;;;;15.87;nan;97644.72;6246287;22;20331;-76
2023/08/02 04:24:20;;;;;;;0.00;0.00;;;;;;;15.87;nan;97646.66;6249209;22;20010;-77
2023/08/02 04:26:46;;;;;;;0.00;0.00;;;;;;;15.85;nan;97647.03;6198349;22;20062;-76
2023/08/02 04:29:14;;;;;;;0.00;0.00;;;;;;;15.80;nan;97641.84;6249418;22;20000;-76
2023/08/02 04:31:40;;;;;;;0.00;0.00;;;;;;;15.73;nan;97625.16;6247538;22;20034;-77
2023/08/02 04:34:05;;;;;;;0.00;0.00;;;;;;;15.76;nan;97635.44;6248114;22;20011;-79
2023/08/02 04:36:31;;;;;;;0.00;0.00;;;;;;;15.81;nan;97646.22;6198333;22;20423;-78
2023/08/02 04:38:57;;;;;;;0.00;0.00;;;;;;;15.80;nan;97647.34;6248305;22;20011;-79
2023/08/02 04:41:22;;;;;;;0.00;0.00;;;;;;;15.78;nan;97652.44;6197974;22;20008;-77
2023/08/02 04:43:48;;;;;;;0.00;0.00;;;;;;;15.80;nan;97641.84;6223488;22;20004;-76
2023/08/02 04:46:13;;;;;;;0.00;0.00;;;;;;;15.82;nan;97622.97;6222733;22;20007;-76
2023/08/02 04:48:39;;;;;;;0.00;0.00;;;;;;;15.86;nan;97629.34;6223189;22;20057;-75
2023/08/02 04:51:08;;;;;;;0.00;0.00;;;;;;;15.85;nan;97638.78;6222732;22;20027;-77
2023/08/02 04:53:34;;;;;;;0.00;0.00;;;;;;;15.82;nan;97636.75;6247781;22;20082;-77
2023/08/02 04:55:59;;;;;;;0.00;0.00;;;;;;;15.75;nan;97627.56;6248687;22;20080;-76
2023/08/02 04:58:26;;;;;;;0.00;0.00;;;;;;;15.62;nan;97602.94;6223099;22;20454;-76
2023/08/02 05:00:51;;;;;;;0.00;0.00;;;;;;;15.67;nan;97615.63;6248835;22;20004;-79
2023/08/02 05:03:19;;;;;;;0.00;0.00;;;;;;;15.60;nan;97604.50;6247721;22;20094;-77
2023/08/02 05:05:45;;;;;;;0.00;0.00;;;;;;;15.58;nan;97620.56;6222627;22;20030;-77
2023/08/02 05:08:10;;;;;;;0.00;0.00;;;;;;;15.54;nan;97618.56;6197094;22;20012;-77
2023/08/02 05:10:41;;;;;;;0.00;0.00;;;;;;;15.38;nan;97604.13;6221638;22;20015;-78
2023/08/02 05:13:06;;;;;;;0.00;0.00;;;;;;;15.44;nan;97624.69;6274316;22;20007;-75
2023/08/02 05:15:36;;;;;;;0.00;0.00;;;;;;;15.44;nan;97619.16;6199384;22;20004;-76
2023/08/02 05:18:02;;;;;;;0.00;0.00;;;;;;;15.46;nan;97616.88;6247215;22;20004;-76
2023/08/02 05:20:36;;;;;;;0.00;0.00;;;;;;;15.38;nan;97615.13;6223745;22;20018;-76
2023/08/02 05:23:06;;;;;;;0.00;0.00;;;;;;;15.32;nan;97611.09;6247962;22;20007;-76
2023/08/02 05:25:42;;;;;;;0.00;0.00;;;;;;;15.24;nan;97592.84;6247183;22;20003;-77
2023/08/02 05:28:07;;;;;;;0.00;0.00;;;;;;;15.34;nan;97619.78;6248539;22;20083;-76
2023/08/02 05:30:38;;;;;;;0.00;0.00;;;;;;;15.23;nan;97614.09;6248578;22;20082;-76
2023/08/02 05:33:07;;;;;;;0.00;0.00;;;;;;;15.22;nan;97608.97;6247048;22;20358;-77
2023/08/02 05:35:54;;;;;;;0.00;0.00;;;;;;;15.07;nan;97602.38;6246749;22;20004;-76
2023/08/02 05:38:22;;;;;;;0.00;0.00;;;;;;;15.12;nan;97635.91;6251338;22;20019;-77
2023/08/02 05:41:09;;;;;;;0.00;0.00;;;;;;;14.99;nan;97620.72;6247860;22;20041;-76
2023/08/02 05:44:01;;;;;;;0.00;0.00;;;;;;;14.87;nan;97612.63;6247880;22;20011;-76
2023/08/02 05:46:29;;;;;;;0.00;0.00;;;;;;;15.02;nan;97647.50;6248596;22;20090;-75
2023/08/02 05:48:58;;;;;;;0.00;0.00;;;;;;;14.68;nan;97600.47;6223143;22;20011;-76
2023/08/02 05:51:23;;;;;;;0.00;0.00;;;;;;;14.65;nan;97623.97;6248204;22;20004;-77
2023/08/02 05:53:52;;;;;;;0.00;0.00;;;;;;;14.45;nan;97625.88;6197678;22;20452;-76
2023/08/02 05:56:23;;;;;;;0.00;0.00;;;;;;;14.36;nan;97638.25;6248150;22;20003;-76
2023/08/02 05:58:50;;;;;;;0.00;0.00;;;;;;;14.17;nan;97614.28;6222034;22;20079;-77
2023/08/02 06:01:18;;;;;;;0.00;0.00;;;;;;;14.35;nan;97637.44;6223561;22;20029;-77
2023/08/02 06:03:49;;;;;;;0.00;0.00;;;;;;;14.19;nan;97604.50;6247786;22;20042;-76
2023/08/02 06:06:14;;;;;;;0.00;0.00;;;;;;;14.31;nan;97631.09;6221302;22;20097;-76
2023/08/02 06:08:41;;;;;;;0.00;0.00;;;;;;;14.29;nan;97628.72;6245639;22;20073;-75
2023/08/02 06:11:07;;;;;;;0.00;0.00;;;;;;;14.39;nan;97632.81;6196518;22;20026;-77
2023/08/02 06:13:32;;;;;;;0.00;0.00;;;;;;;14.44;nan;97629.81;6221979;22;20024;-76
2023/08/02 06:15:57;;;;;;;0.00;0.00;;;;;;;14.55;nan;97629.25;6196892;22;20334;-77
2023/08/02 06:18:23;;;;;;;0.00;0.00;;;;;;;14.62;nan;97618.41;6275151;22;20318;-77
2023/08/02 06:20:48;;;;;;;0.00;0.00;;;;;;;14.77;nan;97614.00;6246740;22;20019;-78
2023/08/02 06:23:14;;;;;;;0.00;0.00;;;;;;;14.78;nan;97619.13;6246635;22;20061;-78
2023/08/02 06:25:39;;;;;;;0.00;0.00;;;;;;;14.89;nan;97638.59;6221040;22;20061;-77
2023/08/02 06:28:07;;;;;;;0.00;0.00;;;;;;;14.96;nan;97643.44;6247059;22;20308;-77
2023/08/02 06:30:32;;;;;;;0.00;0.00;;;;;;;15.05;nan;97633.00;6221640;22;20011;-77
2023/08/02 06:32:58;;;;;;;0.00;0.00;;;;;;;15.16;nan;97645.03;6220616;22;20330;-76
2023/08/02 06:35:26;;;;;;;0.00;0.00;;;;;;;15.18;nan;97628.13;6221211;22;20672;-76
2023/08/02 06:37:51;;;;;;;0.00;0.00;;;;;;;15.29;nan;97628.34;6246776;22;20027;-76
2023/08/02 06:40:17;;;;;;;0.00;0.00;;;;;;;15.42;nan;97634.47;6196162;22;20020;-76
2023/08/02 06:42:42;;;;;;;0.00;0.00;;;;;;;15.58;nan;97635.16;6196218;22;20007;-77
2023/08/02 06:45:08;;;;;;;0.00;0.00;;;;;;;15.83;nan;97645.84;6244653;22;20007;-76
2023/08/02 06:47:38;;;;;;;0.00;0.00;;;;;;;16.03;nan;97624.47;6245478;22;20011;-77
2023/08/02 06:50:06;;;;;;;0.00;0.00;;;;;;;16.18;nan;97645.59;6223017;22;20027;-76
2023/08/02 06:52:45;;;;;;;;;;;;;;;;;;;;;
2023/08/02 06:55:11;;;;;;;0.00;0.00;;;;;;;15.63;nan;97617.53;6274578;22;20510;-76
2023/08/02 06:57:36;;;;;;;0.10;0.10;;;;;;;15.59;nan;97625.72;6220638;22;20050;-77
2023/08/02 07:00:09;;;;;;;0.00;0.00;;;;;;;15.69;nan;97635.34;6221565;22;20689;-76
2023/08/02 07:02:42;;;;;;;0.00;0.00;;;;;;;15.75;nan;97606.31;6247964;22;20022;-78
2023/08/02 07:05:08;;;;;;;0.00;0.00;;;;;;;16.18;nan;97606.22;6222906;22;20099;-77
2023/08/02 07:07:44;;;;;;;0.00;0.00;;;;;;;16.34;nan;97609.56;6196645;22;20035;-75
2023/08/02 07:10:18;;;;;;;0.00;0.00;;;;;;;16.31;nan;97617.78;6224424;22;20331;-75
2023/08/02 07:12:43;;;;;;;;;;;;;;;16.16;nan;97631.34;6247533;22;20537;-76
2023/08/02 07:15:16;;;;;;;0.00;0.00;;;;;;;16.04;nan;97631.59;6220716;22;19911;-75
2023/08/02 07:17:44;;;;;;;0.00;0.00;;;;;;;15.77;nan;97587.47;6247673;22;20007;-75
2023/08/02 07:20:13;;;;;;;0.00;0.00;;;;;;;15.59;nan;97619.41;6224317;22;20019;-75
2023/08/02 07:22:46;;;;;;;0.00;0.00;;;;;;;15.07;nan;97585.84;6222347;22;20011;-76
2023/08/02 07:25:21;;;;;;;;;;;;;;;;;;;;;
2023/08/02 07:27:51;;;;;;;0.00;0.00;;;;;;;15.06;nan;97609.84;6228036;22;20078;-75
2023/08/02 07:30:16;;;;;;;0.00;0.00;;;;;;;15.10;nan;97621.72;6250164;22;19991;-75
2023/08/02 07:32:42;;;;;;;0.00;0.00;;;;;;;15.43;nan;97634.09;6224307;22;20023;-74
2023/08/02 07:35:08;;;;;;;0.00;0.00;;;;;;;15.92;nan;97607.78;6199145;22;20008;-76
2023/08/02 07:37:33;;;;;;;0.00;0.00;;;;;;;16.35;nan;97610.38;6222267;22;20036;-75
2023/08/02 07:40:01;;;;;;;0.00;0.00;;;;;;;16.70;nan;97625.78;6224155;22;20012;-75
2023/08/02 07:42:29;;;;;;;0.00;0.00;;;;;;;16.69;nan;97613.16;6222003;22;20007;-75
2023/08/02 07:45:02;;;;;;;0.00;0.00;;;;;;;16.89;nan;97609.13;6274937;22;20014;-75
2023/08/02 07:47:37;;;;;;;;;;;;;;;;;;;;;
2023/08/02 07:50:09;;;;;;;0.00;0.00;;;;;;;16.86;nan;97581.44;6272747;22;20486;-75
2023/08/02 07:52:52;;;;;;;0.00;0.00;;;;;;;16.98;nan;97585.94;6247605;22;20312;-74
2023/08/02 07:55:20;;;;;;;0.00;0.00;;;;;;;17.22;nan;97601.97;6247558;22;20022;-74
2023/08/02 07:57:45;;;;;;;0.00;0.00;;;;;;;17.38;nan;97604.47;6248327;22;20035;-76
2023/08/02 08:00:15;;;;;;;0.00;0.00;;;;;;;17.66;nan;97627.22;6247136;22;20007;-75
2023/08/02 08:02:50;;;;;;;0.00;0.00;;;;;;;17.47;nan;97600.63;6272452;22;20046;-74
2023/08/02 08:05:19;;;;;;;0.00;0.00;;;;;;;17.23;nan;97608.25;6273910;22;20034;-75
2023/08/02 08:07:44;;;;;;;0.00;0.00;;;;;;;17.12;nan;97612.91;6222027;22;20003;-75
2023/08/02 08:10:12;;;;;;;0.00;0.00;;;;;;;17.39;nan;97599.75;6246973;22;19996;-76
2023/08/02 08:12:45;;;;;;;0.00;0.00;;;;;;;17.71;nan;97571.59;6222015;22;20008;-75
2023/08/02 08:15:11;;;;;;;0.00;0.00;;;;;;;18.08;nan;97579.00;6275075;22;20031;-76
2023/08/02 08:17:36;;;;;;;0.00;0.00;;;;;;;18.34;nan;97596.53;6273601;22;20004;-76
2023/08/02 08:20:06;;;;;;;0.00;0.00;;;;;;;18.29;nan;97594.94;6247889;22;20114;-75
2023/08/02 08:22:34;;;;;;;0.00;0.00;;;;;;;18.10;nan;97598.75;6274918;22;20430;-75
2023/08/02 08:25:20;;;;;;;0.00;0.00;;;;;;;17.99;nan;97576.59;6248108;22;20031;-76
2023/08/02 08:28:08;;;;;;;0.00;0.00;;;;;;;18.01;nan;97590.03;6274101;22;20004;-75
2023/08/02 08:31:08;;;;;;;0.00;0.00;;;;;;;18.27;nan;97592.53;6249363;22;20011;-75
2023/08/02 08:33:33;;;;;;;0.00;0.00;;;;;;;18.16;nan;97594.44;6248163;22;20010;-75
2023/08/02 08:36:10;;;;;;;0.00;0.00;;;;;;;18.11;nan;97578.22;6222679;22;20102;-74
2023/08/02 08:38:46;;;;;;;;;;;;;;;;;;;;;
2023/08/02 08:41:16;;;;;;;0.00;0.00;;;;;;;18.51;nan;97583.97;6274758;22;20078;-74
2023/08/02 08:43:42;;;;;;;0.00;0.00;;;;;;;19.04;nan;97582.59;6246408;22;20043;-74
2023/08/02 08:46:10;;;;;;;0.00;0.00;;;;;;;19.20;nan;97607.94;6221505;22;20012;-75
2023/08/02 08:48:46;;;;;;;0.00;0.00;;;;;;;19.29;nan;97575.13;6273381;22;19996;-75
2023/08/02 08:51:13;;;;;;;0.00;0.00;;;;;;;19.77;nan;97584.25;6247050;22;20484;-76
2023/08/02 08:53:46;;;;;;;0.00;0.00;;;;;;;20.37;nan;97577.03;6274361;22;20023;-74
2023/08/02 08:56:26;;;;;;;0.00;0.00;;;;;;;20.78;nan;97581.28;6247135;22;20019;-74
2023/08/02 08:59:01;;;;;;;0.00;0.00;;;;;;;20.77;nan;97558.28;6272307;22;20423;-75
2023/08/02 09:01:30;;;;;;;0.00;0.00;;;;;;;20.42;nan;97550.88;6248235;22;20027;-75
2023/08/02 09:03:56;;;;;;;0.00;0.00;;;;;;;19.75;nan;97556.16;6247293;22;20007;-76
2023/08/02 09:06:29;;;;;;;0.00;0.00;;;;;;;19.22;nan;97550.19;6244868;22;20063;-76
2023/08/02 09:08:55;;;;;;;0.00;0.00;;;;;;;19.25;nan;97549.41;6269515;22;20031;-75
2023/08/02 09:11:23;;;;;;;0.00;0.00;;;;;;;19.63;nan;97551.81;6271473;22;20003;-75
2023/08/02 09:14:07;;;;;;;0.00;0.00;;;;;;;19.89;nan;97558.94;6272136;22;20050;-74
2023/08/02 09:16:35;;;;;;;0.00;0.00;;;;;;;19.87;nan;97547.44;6246500;22;20003;-75
2023/08/02 09:19:00;;;;;;;0.00;0.00;;;;;;;19.64;nan;97554.19;6222437;22;20038;-75
2023/08/02 09:21:26;;;;;;;0.00;0.00;;;;;;;19.51;nan;97544.69;6247109;22;20418;-74
2023/08/02 09:24:04;;;;;;;0.00;0.00;;;;;;;19.24;nan;97545.03;6220282;22;20082;-75
2023/08/02 09:26:29;;;;;;;0.00;0.00;;;;;;;19.14;nan;97548.59;6245203;22;19999;-75
2023/08/02 09:29:06;;;;;;;0.00;0.00;;;;;;;18.62;nan;97546.84;6246061;22;20370;-76
2023/08/02 09:31:36;;;;;;;0.00;0.00;;;;;;;17.91;nan;97547.28;6272510;22;19996;-75
2023/08/02 09:34:02;;;;;;;0.00;0.00;;;;;;;17.44;nan;97555.22;6246560;22;20003;-75
2023/08/02 09:36:29;;;;;;;0.00;0.00;;;;;;;16.84;nan;97539.63;6248727;22;20689;-75
2023/08/02 09:39:15;;;;;;;0.00;0.00;;;;;;;16.40;nan;97549.38;6246504;22;20011;-76
2023/08/02 09:41:43;;;;;;;0.00;0.00;;;;;;;16.26;nan;97543.69;6247038;22;20007;-75
2023/08/02 09:44:19;;;;;;;0.00;0.00;;;;;;;16.28;nan;97527.53;6246178;22;20403;-74
2023/08/02 09:46:44;;;;;;;0.00;0.00;;;;;;;16.21;nan;97520.78;6248291;22;20004;-74
2023/08/02 09:49:17;;;;;;;0.00;0.00;;;;;;;15.98;nan;97544.88;6220866;22;20057;-76
2023/08/02 09:51:44;;;;;;;0.00;0.00;;;;;;;15.75;nan;97534.66;6274530;22;20008;-77
2023/08/02 09:54:11;;;;;;;0.00;0.00;;;;;;;15.54;nan;97533.19;6245933;22;20027;-74
2023/08/02 09:56:39;;;;;;;0.00;0.00;;;;;;;15.40;nan;97524.69;6247394;22;20000;-75
2023/08/02 09:59:05;;;;;;;0.00;0.00;;;;;;;15.29;nan;97523.75;6273912;22;20008;-74
2023/08/02 10:01:32;;;;;;;0.00;0.00;;;;;;;15.16;nan;97529.41;6222839;22;20008;-75
2023/08/02 10:04:02;;;;;;;0.00;0.00;;;;;;;15.00;nan;97523.25;6274388;22;20419;-74
2023/08/02 10:06:44;;;;;;;0.00;0.00;;;;;;;14.87;nan;97516.34;6273993;22;20034;-75
2023/08/02 10:09:11;;;;;;;0.00;0.00;;;;;;;14.72;nan;97507.81;6272994;22;20010;-75
2023/08/02 10:12:17;;;;;;;0.00;0.00;;;;;;;14.69;nan;97500.31;6247538;22;20007;-75
2023/08/02 10:14:43;;;;;;;0.00;0.00;;;;;;;14.91;nan;97508.91;6247234;22;19999;-73
2023/08/02 10:17:10;;;;;;;0.00;0.00;;;;;;;15.02;nan;97493.41;6221911;22;20014;-74
2023/08/02 10:19:35;;;;;;;0.00;0.00;;;;;;;15.15;nan;97497.56;6245509;22;20006;-75
2023/08/02 10:22:11;;;;;;;0.00;0.00;;;;;;;15.11;nan;97496.72;6272701;22;20004;-76
2023/08/02 10:24:37;;;;;;;0.00;0.00;;;;;;;15.13;nan;97491.63;6223344;22;20008;-77
2023/08/02 10:27:07;;;;;;;0.00;0.00;;;;;;;15.19;nan;97487.41;6246404;22;20007;-75
2023/08/02 10:29:34;;;;;;;0.00;0.00;;;;;;;15.16;nan;97481.84;6221142;22;20003;-75
2023/08/02 10:32:29;;;;;;;0.00;0.00;;;;;;;15.31;nan;97480.13;6220756;22;20422;-75
2023/08/02 10:34:56;;;;;;;0.00;0.00;;;;;;;15.18;nan;97458.28;6214918;22;20003;-76
2023/08/02 10:37:22;;;;;;;0.00;0.00;;;;;;;15.45;nan;97455.56;6221984;22;20060;-76
2023/08/02 10:39:48;;;;;;;0.00;0.00;;;;;;;15.77;nan;97462.66;6273264;22;20006;-76
2023/08/02 10:42:29;;;;;;;0.00;0.00;;;;;;;15.73;nan;97437.84;6246661;22;20016;-76
2023/08/02 10:44:55;;;;;;;0.00;0.00;;;;;;;15.88;nan;97456.16;6245896;22;19999;-76
2023/08/02 10:47:33;;;;;;;0.00;0.00;;;;;;;15.87;nan;97449.09;6246600;22;20528;-75
2023/08/02 10:50:00;;;;;;;0.00;0.00;;;;;;;15.80;nan;97426.94;6246732;22;20857;-75
2023/08/02 10:56:12;;;;;;;;;;;;;;;;;;;;;
2023/08/02 10:58:47;;;;;;;0.00;0.00;;;;;;;15.65;nan;97411.34;6274736;22;20082;-78
2023/08/02 11:01:15;;;;;;;0.00;0.00;;;;;;;15.61;nan;97416.03;6220379;22;20065;-76
2023/08/02 11:03:41;;;;;;;0.00;0.00;;;;;;;15.60;nan;97414.47;6246157;22;20403;-75
2023/08/02 11:06:07;;;;;;;0.00;0.00;;;;;;;15.62;nan;97401.09;6245750;22;20011;-76
2023/08/02 11:08:48;;;;;;;0.00;0.00;;;;;;;15.75;nan;97407.16;6220492;22;20090;-75
2023/08/02 11:11:26;;;;;;;0.00;0.00;;;;;;;15.66;nan;97382.66;6272228;22;20004;-75
2023/08/02 11:13:51;;;;;;;0.00;0.00;;;;;;;15.68;nan;97375.63;6246876;22;20004;-76
2023/08/02 11:16:17;;;;;;;0.00;0.00;;;;;;;15.86;nan;97372.31;6246324;22;20004;-75
2023/08/02 11:18:45;;;;;;;0.00;0.00;;;;;;;15.86;nan;97375.84;6220993;22;20004;-76
2023/08/02 11:21:13;;;;;;;0.00;0.00;;;;;;;15.72;nan;97364.63;6248716;22;20482;-76
2023/08/02 11:23:39;;;;;;;0.00;0.00;;;;;;;15.61;nan;97341.66;6249910;22;20330;-76
2023/08/02 11:26:12;;;;;;;0.00;0.00;;;;;;;15.77;nan;97363.50;6223763;22;20004;-75
2023/08/02 11:28:45;;;;;;;0.00;0.00;;;;;;;15.75;nan;97352.06;6249884;22;19999;-75
2023/08/02 11:31:11;;;;;;;0.00;0.00;;;;;;;15.66;nan;97339.38;6276333;22;20079;-75
2023/08/02 11:33:40;;;;;;;0.00;0.00;;;;;;;15.67;nan;97337.44;6277663;22;20078;-75
2023/08/02 11:36:06;;;;;;;0.00;0.00;;;;;;;15.83;nan;97353.78;6248364;22;20008;-75
2023/08/02 11:38:55;;;;;;;0.00;0.00;;;;;;;15.62;nan;97322.00;6249591;22;20314;-75
2023/08/02 11:41:23;;;;;;;0.00;0.00;;;;;;;15.74;nan;97329.25;6228128;22;20007;-76
2023/08/02 11:43:51;;;;;;;0.00;0.00;;;;;;;15.88;nan;97318.41;6248596;22;20059;-76
2023/08/02 11:46:27;;;;;;;0.00;0.00;;;;;;;16.20;nan;97323.44;6249922;22;20011;-75
2023/08/02 11:49:16;;;;;;;0.00;0.00;;;;;;;16.38;nan;97301.56;6276840;22;20007;-75
2023/08/02 11:51:52;;;;;;;0.00;0.00;;;;;;;16.74;nan;97273.47;6250455;22;20034;-77
2023/08/02 11:54:43;;;;;;;0.00;0.00;;;;;;;16.95;nan;97263.75;6249523;22;20110;-76
2023/08/02 11:57:11;;;;;;;0.00;0.00;;;;;;;17.13;nan;97289.50;6275706;22;20008;-76
2023/08/02 11:59:39;;;;;;;0.00;0.00;;;;;;;17.21;nan;97282.03;6223727;22;20011;-78
2023/08/02 12:02:41;;;;;;;0.00;0.00;;;;;;;17.15;nan;97276.09;6223135;22;20370;-77
2023/08/02 12:05:25;;;;;;;0.00;0.00;;;;;;;17.27;nan;97278.53;6247939;22;20057;-76
2023/08/02 12:08:10;;;;;;;0.00;0.00;;;;;;;17.35;nan;97284.09;6224099;22;20023;-75
2023/08/02 12:10:46;;;;;;;0.00;0.00;;;;;;;17.46;nan;97257.28;6277185;22;19999;-76